• Join FlightAware (Why Join?)
  • Login
  • US Flag 
05:51PM EDT


 

Airport Tracker/Info


-or-


 

Live Flight TrackerFlight Track Log ✈ VNR109 ✈ 29-Apr-2012 ✈ 3J7 - KPIE

Flight Track Log - Related Links

Times and Time Zones

All times are in EDT time to prevent confusion due to time zone crossing. See the VNR109 flight status page for this flight to view local times or setup timezone preferences in your user account.

Time Position Orientation Groundspeed Altitude Reporting Facility
EDT Latitude Longitude Course Direction KTS MPH feet Rate Location/Type
04:56PM 33.4194 -83.1353 169° South 208 239 7,300  Level Atlanta Center
04:57PM 33.3586 -83.1211 169° South 208 239 9,100 1,860 Climbing Atlanta Center
04:58PM 33.2875 -83.1044 172° South 229 264 11,000 1,800 Climbing Atlanta Center
04:59PM 33.2167 -83.0928 171° South 249 287 12,800 1,800 Climbing Atlanta Center
05:00PM 33.1433 -83.0786 169° South 261 300 14,600 1,800 Climbing Atlanta Center
05:01PM 33.0744 -83.0622 171° South 261 300 16,400 1,740 Climbing Atlanta Center
05:02PM 33.0011 -83.0481 172° South 261 300 18,100 1,740 Climbing Atlanta Center
05:03PM 32.9281 -83.0364 168° South 261 300 19,900 1,680 Climbing Atlanta Center
05:04PM 32.8528 -83.0175 172° South 261 300 21,500 1,500 Climbing Atlanta Center
05:05PM 32.7858 -83.0061 169° South 271 312 22,900 720 Climbing Atlanta Center
05:06PM 32.6958 -82.9850 171° South 295 339 23,000  Climbing Atlanta Center
05:07PM 32.6019 -82.9664 171° South 327 376 23,000 480 Level Atlanta Center
05:08PM 32.5100 -82.9500 170° South 343 395 24,000 1,140 Climbing Atlanta Center
05:09PM 32.4219 -82.9317 169° South 336 387 25,300 1,140 Climbing Atlanta Center
05:10PM 32.3406 -82.9128 171° South 316 364 26,300 720 Climbing Atlanta Center
05:11PM 32.2569 -82.8967 169° South 310 357 26,800 540 Climbing Atlanta Center
05:12PM 32.1708 -82.8778 171° South 309 356 27,400 600 Climbing Jacksonville Center
05:13PM 32.0747 -82.8606 170° South 330 380 28,000 300 Climbing Jacksonville Center
05:14PM 31.9725 -82.8386 169° South 351 404 28,000  Level Jacksonville Center
05:15PM 31.8847 -82.8192 170° South 362 417 28,000  Level Jacksonville Center
05:16PM 31.7781 -82.7972 171° South 376 433 28,000  Level Jacksonville Center
05:17PM 31.6694 -82.7778 171° South 387 445 28,000  Level Jacksonville Center
05:18PM 31.5631 -82.7583 170° South 392 451 28,000  Level Jacksonville Center
05:19PM 31.4567 -82.7367 170° South 392 451 28,000  Level Jacksonville Center
05:20PM 31.3500 -82.7150 170° South 392 451 28,000  Level Jacksonville Center
05:21PM 31.2414 -82.6933 171° South 392 451 28,000  Level Jacksonville Center
05:22PM 31.1350 -82.6742 172° South 392 451 28,000 -180 Level Jacksonville Center
05:23PM 31.0283 -82.6575 169° South 392 451 27,700 -480 Descending Jacksonville Center
05:24PM 30.9197 -82.6336 172° South 392 451 27,100 -660 Descending Jacksonville Center
05:25PM 30.8092 -82.6144 170° South 392 451 26,400 -600 Descending Jacksonville Center
05:26PM 30.7025 -82.5931 171° South 392 451 26,000 -240 Descending Jacksonville Center
05:27PM 30.5961 -82.5739 170° South 392 451 26,000  Level Jacksonville Center
05:28PM 30.4894 -82.5528 169° South 392 451 26,000 -540 Level Jacksonville Center
05:29PM 30.3831 -82.5289 170° South 392 451 25,000 -1,080 Descending Jacksonville Center
05:30PM 30.2806 -82.5078 169° South 387 445 23,900 -1,080 Descending Jacksonville Center
05:31PM 30.1781 -82.4842 169° South 387 445 22,900 -1,080 Descending Jacksonville Center
05:32PM 30.0800 -82.4628 169° South 376 433 21,800 -1,200 Descending Jacksonville Center
05:33PM 29.9714 -82.4394 168° South 362 417 20,600 -1,140 Descending Jacksonville Center
05:34PM 29.8711 -82.4158 171° South 362 417 19,600 -840 Descending Jacksonville Center
05:35PM 29.7853 -82.3994 170° South 362 417 19,000 -300 Descending Jacksonville Center
05:36PM 29.6872 -82.3786 169° South 362 417 19,000  Level Jacksonville Center
05:37PM 29.5911 -82.3575 170° South 362 417 19,000  Level Jacksonville Center
05:38PM 29.4950 -82.3389 170° South 356 410 19,000  Level Jacksonville Center
05:39PM 29.3947 -82.3181 169° South 356 410 19,000  Level Jacksonville Center
05:40PM 29.2986 -82.2972 169° South 356 410 19,000 -60 Level Jacksonville Center
05:41PM 29.2025 -82.2764 173° South 356 410 18,900 -540 Descending Jacksonville Center
05:42PM 29.1083 -82.2628 178° South 351 404 18,000 -900 Descending Jacksonville Center
05:43PM 29.0186 -82.2586 183° South 345 397 17,200 -1,560 Descending Jacksonville Center
05:44PM 28.9228 -82.2639 178° South 345 397 14,900 -2,220 Descending Jacksonville Center
05:45PM 28.8350 -82.2597 178° South 340 391 12,800 -1,200 Descending Jacksonville Center
05:47PM 28.6333 -82.2500 199° South 310 357 11,000 -960 Descending Tampa TRACON
05:48PM 28.5500 -82.2833 246° West 311 358 9,700 -1,440 Descending Tampa TRACON
05:49PM 28.5167 -82.3667 249° West 313 360 8,100 -1,560 Descending Tampa TRACON
05:50PM 28.4833 -82.4667 246° West 303 349 6,500 -1,140 Descending Tampa TRACON
05:51PM 28.4500 -82.5500 246° West 303 349 5,900 -1,020 Descending Tampa TRACON
05:52PM 28.4167 -82.6333 230° Southwest 286 329 4,500 -960 Descending Tampa TRACON
05:53PM 28.3667 -82.7000 192° South 257 296 4,000 -240 Descending Tampa TRACON
05:54PM 28.3000 -82.7167 192° South 226 260 4,000  Level Tampa TRACON
05:55PM 28.2333 -82.7333 180° South 222 255 4,000 -60 Level Tampa TRACON
05:56PM 28.1833 -82.7333 192° South 221 254 3,900 -480 Descending Tampa TRACON
05:57PM 28.1167 -82.7500 192° South 236 272 3,100 -660 Descending Tampa TRACON
05:58PM 28.0500 -82.7667 164° South 227 261 2,600 -300 Descending Tampa TRACON
05:59PM 28.0000 -82.7500 180° South 206 237 2,600 -300 Level Tampa TRACON
06:00PM 27.9333 -82.7500 156° South 184 212 2,000 -600 Descending Tampa TRACON
06:01PM 27.9000 -82.7333 156° South 175 201 1,400 -600 Descending Tampa TRACON
06:02PM 27.8667 -82.7167 41° Northeast 127 146 900 -720 Descending Tampa TRACON
06:03PM 27.9000 -82.6833 41° Northeast 131 151 100 -900 Descending Tampa TRACON